Beulah, Canada
Current Conditions -  °F | °C
As of 2:00 PM on Wednesday 28 Jan 2015 (Local Time) from CYBR Reporting Station
Overcast Overcast  
Wind Chill: 10°   Ceiling: 1200
Heat Index: 23°   Visibility: 10mi
Dew Point: 21°   Wind: 15mph
Humidity: 93%   Direction: 340°NNW
Pressure: 29.93"   Gusts: NA
Location:  50.27°N, 101.03°W
Report Text: CYBR 282000Z 34013KT 10SM BKN012 OVC020 M05/M06 A2993 RMK SC5SC3 SLP162
Loading
Personal Weather Stations






























Interactive Weather Map New forecast layout! Learn more

10-Day Weather Forecast

Advertisements
Track Severe Weather on mobile